Finger, Tennessee
Current Conditions -  °F | °C
As of 8:53 PM on Monday 22 Dec 2014 (Local Time) from KMKL Reporting Station
Overcast Overcast  
Wind Chill: 56°   Ceiling: 600
Heat Index: 56°   Visibility: 10mi
Dew Point: 53°   Wind: 9mph
Humidity: 90%   Direction: 180°S
Pressure: 29.65"   Gusts: NA
Location:  35.36°N, 88.6°W
Report Text: KMKL 230253Z AUTO 18008KT 10SM OVC006 13/12 A2965 RMK AO2 SLP040 T01330117 51009
Loading
Personal Weather Stations






























Interactive Weather Map New forecast layout! Learn more

10-Day Weather Forecast

Advertisements
Track Severe Weather on mobile